Main page
METAR-TAF:

METAR-TAF

Airports :

Flagstaff Pulliam Airport

Flagstaff, Arizona, United States

latitude: 35-08-25N, longitude: 111-40-20W, elevation: 7009 ft

Current weather observation

The report was made 56 minutes ago, at 22:57 UTC
Wind 13 mph from the East/Northeast
Temperature 57°F
Humidity 24%
Pressure 30.14 in. Hg
Visibility: 10 miles
Clear sky

METAR: KFLG 282257Z 07011KT 10SM CLR 14/M06 A3014 RMK AO2 SLP179 T01391061

Time: 16:53 (23:53 UTC)

Forecast

The report was made 33 minutes ago, at 23:20 UTC
Forecast valid from 29 at 00 UTC to 29 at 24 UTC
Wind 14 mph from the East/Northeast with gusts up to 24 mph
Visibility: 6 miles
Clear sky
From 29 at 0100 UTC
Wind 6 mph from the East/Northeast
Visibility: 6 miles
Clear sky
From 29 at 1700 UTC
Wind 9 mph from the East/Northeast with gusts up to 17 mph
Visibility: 6 miles
Scattered clouds at a height of 25000 ft

TAF: KFLG 282320Z 2900/2924 06012G21KT P6SM SKC FM290100 07005KT P6SM SKC FM291700 07008G15KT P6SM SCT250

Weather observations and forecasts of more than 4000 airports (METAR and TAF reports).

The available stations are represented by yellow and red dots on the map.

Hover mouse over dot to see the name of the station.

Then click to see weather observations and forecasts.

To change the map : click on the green buttons with a black cross to zoom in, on the green button with a dash to zoom out, or on the green arrows for adjacent maps.


METAR-TAF: